Terminal Aerodrome Forecast
Issued by NWS

Home | Current Version | Previous Version | Text Only | Print | Product List | Glossary On
Versions: 1 2 3 4 5 6 7 8 9 10 11 12 13 14 15
000
FTUS41 KPHI 131120
TAFMIV
TAF
KMIV 131120Z 1312/1412 28018G26KT P6SM SKC
     FM132300 27008KT P6SM BKN090
     FM140000 VRB05KT P6SM OVC040 PROB30 1403/1407 2SM -SN
     FM141000 24006KT P6SM OVC040=

USA.gov is the U.S. government's official web portal to all federal, state and local government web resources and services.